Main page
METAR-TAF:

METAR-TAF

Airports :

Grenchen Airport

Grenchen, Switzerland

latitude: 47-10-53N, longitude: 007-24-59E, elevation: 430 m

Current weather observation

The report was made 15 minutes ago, at 23:50 UTC
Wind 3 kt from the Southwest
Temperature 3°C
Humidity 100%
Pressure 1006 hPa
Visibility 10 km or more
Overcast at a height of 1200 ft
light rain

METAR: LSZG 172350Z AUTO 22003KT 9999 -RA OVC012 03/03 Q1006

Time: 01:05 (00:05 UTC)

Forecast

The report was made 9 hours and 40 minutes ago, at 14:25 UTC
Forecast valid from 17 at 15 UTC to 17 at 24 UTC
Wind 4 kt from the Southwest
Visibility: 8000 m
Scattered clouds at a height of 800 ft
Broken clouds at a height of 5000 ft
Broken clouds at a height of 7000 ft
light rain
Probability 40% :
Temporary
from 17 at 17 UTC to 17 at 24 UTC
Broken clouds at a height of 800 ft

TAF: LSZG 171425Z 1715/1724 22004KT 8000 -RA SCT008 BKN050 BKN070 PROB40 TEMPO 1717/1724 BKN008

Weather observations and forecasts of more than 4000 airports (METAR and TAF reports).

The available stations are represented by yellow and red dots on the map.

Hover mouse over dot to see the name of the station.

Then click to see weather observations and forecasts.

To change the map : click on the green buttons with a black cross to zoom in, on the green button with a dash to zoom out, or on the green arrows for adjacent maps.


METAR-TAF: